createdAt,value
2018-10-21T00:03:05.550Z,101435.52
2018-10-21T00:08:24.107Z,101431.52
2018-10-21T00:13:42.645Z,101438.47
2018-10-21T00:19:01.159Z,101428.48
2018-10-21T00:24:19.860Z,101432.22
2018-10-21T00:29:38.719Z,101430.80
2018-10-21T00:34:57.307Z,101425.42
2018-10-21T00:40:15.879Z,101423.89
2018-10-21T00:45:34.461Z,101427.27
2018-10-21T00:50:53.445Z,101411.80
2018-10-21T00:56:12.021Z,101409.91
2018-10-21T01:01:30.636Z,101413.33
2018-10-21T01:06:49.141Z,101398.97
2018-10-21T01:12:07.634Z,101401.64
2018-10-21T01:17:26.201Z,101406.48
2018-10-21T01:22:44.934Z,101415.89
2018-10-21T01:28:03.613Z,101420.09
2018-10-21T01:33:22.403Z,101422.06
2018-10-21T01:38:41.035Z,101430.69
2018-10-21T01:43:59.545Z,101424.47
2018-10-21T01:49:24.290Z,101421.47
2018-10-21T01:54:42.795Z,101423.31
2018-10-21T02:00:01.345Z,101425.58
2018-10-21T02:05:19.905Z,101424.27
2018-10-21T02:10:38.436Z,101426.05
2018-10-21T02:15:57.089Z,101421.38
2018-10-21T02:21:15.731Z,101422.29
2018-10-21T02:26:34.239Z,101423.42
2018-10-21T02:31:52.755Z,101419.59
2018-10-21T02:37:11.358Z,101405.31
2018-10-21T02:42:30.036Z,101405.11
2018-10-21T02:47:48.594Z,101392.90
2018-10-21T02:53:07.284Z,101396.73
2018-10-21T02:58:25.847Z,101387.47
2018-10-21T03:03:44.515Z,101380.20
2018-10-21T03:09:03.182Z,101376.11
2018-10-21T03:14:21.811Z,101364.51
2018-10-21T03:19:40.357Z,101361.70
2018-10-21T03:24:58.904Z,101369.14
2018-10-21T03:30:17.622Z,101373.19
2018-10-21T03:35:36.173Z,101372.94
2018-10-21T03:40:54.761Z,101369.03
2018-10-21T03:46:14.437Z,101360.05
2018-10-21T03:51:33.118Z,101364.14
2018-10-21T03:56:51.689Z,101365.60
2018-10-21T04:02:10.247Z,101369.00
2018-10-21T04:07:28.818Z,101360.02
2018-10-21T04:12:47.327Z,101357.64
2018-10-21T04:18:05.900Z,101350.61
2018-10-21T04:23:24.384Z,101343.13
2018-10-21T04:28:43.326Z,101342.76
2018-10-21T04:34:01.977Z,101346.59
2018-10-21T04:39:31.564Z,101331.63
2018-10-21T04:44:50.067Z,101332.03
2018-10-21T04:50:09.897Z,101329.66
2018-10-21T04:55:28.486Z,101321.19
2018-10-21T05:00:47.180Z,101319.98
2018-10-21T05:06:06.459Z,101317.86
2018-10-21T05:11:25.828Z,101330.97
2018-10-21T05:16:44.912Z,101314.84
2018-10-21T05:22:04.202Z,101322.80
2018-10-21T05:27:22.750Z,101320.13
2018-10-21T05:32:41.535Z,101323.85
2018-10-21T05:38:00.195Z,101312.95
2018-10-21T05:43:18.716Z,101314.99
2018-10-21T05:48:37.287Z,101318.93
2018-10-21T05:53:55.850Z,101313.79
2018-10-21T05:59:15.395Z,101325.68
2018-10-21T06:04:34.057Z,101317.00
2018-10-21T06:09:53.176Z,101313.86
2018-10-21T06:15:12.053Z,101324.48
2018-10-21T06:20:34.163Z,101332.61
2018-10-21T06:25:52.956Z,101335.97
2018-10-21T06:31:11.689Z,101329.66
2018-10-21T06:36:30.555Z,101330.53
2018-10-21T06:41:49.196Z,101341.41
2018-10-21T06:47:07.855Z,101345.78
2018-10-21T06:52:26.388Z,101350.88
2018-10-21T06:57:45.715Z,101351.68
2018-10-21T07:03:04.254Z,101361.82
2018-10-21T07:08:22.842Z,101360.11
2018-10-21T07:13:41.475Z,101366.56
2018-10-21T07:19:00.277Z,101362.08
2018-10-21T07:24:18.884Z,101367.91
2018-10-21T07:29:37.651Z,101367.92
2018-10-21T07:34:56.525Z,101367.09
2018-10-21T07:40:15.180Z,101368.43
2018-10-21T07:45:33.903Z,101368.98
2018-10-21T07:50:52.576Z,101381.80
2018-10-21T07:56:11.329Z,101378.25
2018-10-21T08:01:30.031Z,101375.53
2018-10-21T08:06:59.590Z,101380.91
2018-10-21T08:12:18.134Z,101377.00
2018-10-21T08:17:36.755Z,101374.11
2018-10-21T08:35:36.216Z,101366.18
2018-10-21T08:40:54.919Z,101368.39
2018-10-21T08:46:13.606Z,101371.20
2018-10-21T08:51:32.179Z,101372.06
2018-10-21T08:56:50.852Z,101372.71
2018-10-21T09:02:09.539Z,101370.91
2018-10-21T09:07:28.055Z,101369.82
2018-10-21T09:12:46.672Z,101363.68
2018-10-21T09:18:05.527Z,101366.14
2018-10-21T09:23:24.133Z,101366.15
2018-10-21T09:28:42.679Z,101371.02
2018-10-21T09:34:01.426Z,101364.52
2018-10-21T09:39:20.102Z,101355.43
2018-10-21T09:44:38.615Z,101359.92
2018-10-21T09:49:57.148Z,101358.42
2018-10-21T09:55:18.553Z,101357.40
2018-10-21T10:00:42.170Z,101354.70
2018-10-21T10:06:00.697Z,101349.84
2018-10-21T10:11:19.415Z,101342.19
2018-10-21T10:16:38.179Z,101341.58
2018-10-21T10:21:56.832Z,101334.67
2018-10-21T10:27:15.516Z,101328.30
2018-10-21T10:32:34.228Z,101318.14
2018-10-21T10:37:52.832Z,101313.27
2018-10-21T10:43:12.162Z,101310.36
2018-10-21T10:48:30.893Z,101311.84
2018-10-21T10:53:50.905Z,101311.10
2018-10-21T10:59:09.637Z,101308.18
2018-10-21T11:04:28.332Z,101303.27
2018-10-21T11:09:47.283Z,101293.23
2018-10-21T11:15:07.089Z,101290.82
2018-10-21T11:20:25.783Z,101289.40
2018-10-21T11:25:44.496Z,101276.11
2018-10-21T11:31:03.410Z,101269.84
2018-10-21T11:36:30.607Z,101265.70
2018-10-21T11:41:49.348Z,101259.04
2018-10-21T11:47:08.134Z,101255.55
2018-10-21T11:52:26.957Z,101247.30
2018-10-21T11:57:45.682Z,101236.69
2018-10-21T12:03:04.568Z,101234.08
2018-10-21T12:08:23.524Z,101221.03
2018-10-21T12:13:43.069Z,101212.23
2018-10-21T12:19:02.530Z,101204.20
2018-10-21T12:24:21.194Z,101204.48
2018-10-21T12:29:39.747Z,101195.94
2018-10-21T12:34:58.435Z,101195.55
2018-10-21T12:40:17.076Z,101200.56
2018-10-21T12:45:35.778Z,101194.93
2018-10-21T12:50:54.198Z,101192.47
2018-10-21T12:56:12.806Z,101180.13
2018-10-21T13:01:31.375Z,101176.73
2018-10-21T13:06:49.892Z,101168.53
2018-10-21T13:12:08.445Z,101167.12
2018-10-21T13:17:27.136Z,101162.03
2018-10-21T13:22:45.785Z,101162.71
2018-10-21T13:28:04.335Z,101161.53
2018-10-21T13:33:22.888Z,101154.08
2018-10-21T13:38:41.498Z,101149.47
2018-10-21T13:44:00.153Z,101141.56
2018-10-21T13:49:18.695Z,101135.02
2018-10-21T13:54:37.198Z,101127.36
2018-10-21T13:59:55.814Z,101122.38
2018-10-21T14:05:14.402Z,101122.36
2018-10-21T14:10:33.365Z,101119.70
2018-10-21T14:15:52.161Z,101112.95
2018-10-21T14:21:10.670Z,101105.91
2018-10-21T14:26:29.526Z,101105.81
2018-10-21T14:31:48.074Z,101102.72
2018-10-21T14:37:06.656Z,101102.04
2018-10-21T14:42:25.252Z,101090.95
2018-10-21T14:47:43.846Z,101090.06
2018-10-21T14:53:02.420Z,101085.48
2018-10-21T14:58:21.008Z,101074.04
2018-10-21T15:03:39.644Z,101064.59
2018-10-21T15:08:58.236Z,101064.06
2018-10-21T15:14:16.886Z,101062.72
2018-10-21T15:19:35.379Z,101054.75
2018-10-21T15:24:53.942Z,101062.18
2018-10-21T15:30:13.052Z,101060.83
2018-10-21T15:35:31.517Z,101064.37
2018-10-21T15:40:50.046Z,101063.14
2018-10-21T15:46:08.622Z,101063.52
2018-10-21T15:51:27.091Z,101064.27
2018-10-21T15:56:45.707Z,101057.19
2018-10-21T16:02:04.398Z,101056.80
2018-10-21T16:07:22.923Z,101062.58
2018-10-21T16:12:41.528Z,101058.42
2018-10-21T16:18:00.059Z,101050.33
2018-10-21T16:23:18.594Z,101052.83
2018-10-21T16:28:37.187Z,101040.98
2018-10-21T16:33:55.751Z,101040.23
2018-10-21T16:39:14.367Z,101052.62
2018-10-21T16:44:32.838Z,101048.89
2018-10-21T16:49:51.339Z,101045.80
2018-10-21T16:55:10.571Z,101044.70
2018-10-21T17:00:29.320Z,101044.62
2018-10-21T17:05:47.745Z,101053.31
2018-10-21T17:11:06.425Z,101051.38
2018-10-21T17:16:24.947Z,101053.38
2018-10-21T17:21:43.733Z,101056.23
2018-10-21T17:27:02.241Z,101060.09
2018-10-21T17:32:20.837Z,101060.79
2018-10-21T17:37:39.755Z,101066.63
2018-10-21T17:42:58.373Z,101070.75
2018-10-21T17:48:16.930Z,101071.77
2018-10-21T17:53:35.468Z,101077.90
2018-10-21T17:58:54.021Z,101083.70
2018-10-21T18:04:12.565Z,101085.34
2018-10-21T18:09:31.056Z,101082.19
2018-10-21T18:14:49.724Z,101078.55
2018-10-21T18:20:09.358Z,101081.84
2018-10-21T18:25:27.831Z,101091.59
2018-10-21T18:30:46.990Z,101092.06
2018-10-21T18:36:05.697Z,101085.22
2018-10-21T18:41:24.323Z,101085.38
2018-10-21T18:46:42.884Z,101079.23
2018-10-21T18:52:01.429Z,101070.95
2018-10-21T18:57:20.094Z,101066.91
2018-10-21T19:02:38.600Z,101074.97
2018-10-21T19:07:57.145Z,101077.56
2018-10-21T19:13:15.736Z,101076.53
2018-10-21T19:18:34.216Z,101074.02
2018-10-21T19:23:52.740Z,101079.77
2018-10-21T19:29:11.224Z,101079.88
2018-10-21T19:34:30.632Z,101071.72
2018-10-21T19:39:49.197Z,101074.16
2018-10-21T19:45:08.670Z,101070.98
2018-10-21T19:50:27.235Z,101073.53
2018-10-21T19:55:45.752Z,101075.44
2018-10-21T20:01:04.351Z,101072.66
2018-10-21T20:06:22.959Z,101068.00
2018-10-21T20:11:41.878Z,101066.38
2018-10-21T20:17:00.414Z,101076.07
2018-10-21T20:22:18.961Z,101073.87
2018-10-21T20:27:37.533Z,101080.91
2018-10-21T20:32:56.135Z,101082.19
2018-10-21T20:38:14.626Z,101084.69
2018-10-21T20:43:33.130Z,101083.26
2018-10-21T20:48:51.697Z,101075.39
2018-10-21T20:54:10.454Z,101079.66
2018-10-21T20:59:29.065Z,101092.31
2018-10-21T21:04:47.523Z,101095.87
2018-10-21T21:10:06.942Z,101092.95
2018-10-21T21:15:25.393Z,101102.34
2018-10-21T21:20:43.986Z,101100.27
2018-10-21T21:26:02.437Z,101099.65
2018-10-21T21:31:20.951Z,101101.64
2018-10-21T21:36:39.445Z,101110.39
2018-10-21T21:41:57.981Z,101118.73
2018-10-21T21:47:16.475Z,101117.95
2018-10-21T21:52:34.975Z,101116.44
2018-10-21T21:57:53.472Z,101114.11
2018-10-21T22:03:11.999Z,101111.48
2018-10-21T22:08:30.514Z,101107.33
2018-10-21T22:13:49.047Z,101101.92
2018-10-21T22:19:08.362Z,101101.92
2018-10-21T22:24:26.851Z,101099.52
2018-10-21T22:29:45.328Z,101100.77
2018-10-21T22:35:04.722Z,101099.48
2018-10-21T22:40:23.291Z,101091.23
2018-10-21T22:45:41.805Z,101082.43
2018-10-21T22:51:00.275Z,101088.18
2018-10-21T22:56:18.759Z,101095.77
2018-10-21T23:01:37.260Z,101094.19
2018-10-21T23:06:55.794Z,101100.96
2018-10-21T23:12:14.383Z,101104.14
2018-10-21T23:17:32.856Z,101095.02
2018-10-21T23:22:51.320Z,101102.09
2018-10-21T23:28:09.907Z,101105.22
2018-10-21T23:33:28.371Z,101106.62
2018-10-21T23:38:46.936Z,101111.17
2018-10-21T23:44:05.645Z,101110.04
2018-10-21T23:49:24.152Z,101117.11
2018-10-21T23:54:42.679Z,101115.91
